sensor_id;sensor_type;location;lat;lon;timestamp;pressure;altitude;pressure_sealevel;temperature;humidity
21236;BME280;10775;42.678;26.324;2024-03-22T00:01:53;98819.03;;;6.31;73.93
21236;BME280;10775;42.678;26.324;2024-03-22T00:04:18;98826.84;;;6.20;71.56
21236;BME280;10775;42.678;26.324;2024-03-22T00:06:46;98826.00;;;6.14;75.37
21236;BME280;10775;42.678;26.324;2024-03-22T00:09:11;98820.78;;;6.10;75.27
21236;BME280;10775;42.678;26.324;2024-03-22T00:11:39;98824.25;;;6.19;74.32
21236;BME280;10775;42.678;26.324;2024-03-22T00:14:06;98819.91;;;6.18;80.79
21236;BME280;10775;42.678;26.324;2024-03-22T00:16:31;98816.47;;;6.14;73.96
21236;BME280;10775;42.678;26.324;2024-03-22T00:18:57;98821.63;;;6.16;78.42
21236;BME280;10775;42.678;26.324;2024-03-22T00:21:22;98822.50;;;6.28;83.65
21236;BME280;10775;42.678;26.324;2024-03-22T00:23:48;98819.91;;;6.18;76.65
21236;BME280;10775;42.678;26.324;2024-03-22T00:26:14;98825.09;;;6.10;75.19
21236;BME280;10775;42.678;26.324;2024-03-22T00:28:39;98819.06;;;6.06;79.55
21236;BME280;10775;42.678;26.324;2024-03-22T00:31:04;98819.91;;;5.96;74.44
21236;BME280;10775;42.678;26.324;2024-03-22T00:33:30;98822.47;;;5.84;73.06
21236;BME280;10775;42.678;26.324;2024-03-22T00:35:57;98825.03;;;5.72;74.51
21236;BME280;10775;42.678;26.324;2024-03-22T00:38:22;98815.56;;;5.83;76.37
21236;BME280;10775;42.678;26.324;2024-03-22T00:40:48;98820.72;;;5.81;75.52
21236;BME280;10775;42.678;26.324;2024-03-22T00:43:13;98821.56;;;5.77;76.47
21236;BME280;10775;42.678;26.324;2024-03-22T00:45:39;98815.53;;;5.78;76.43
21236;BME280;10775;42.678;26.324;2024-03-22T00:48:04;98819.84;;;5.82;75.93
21236;BME280;10775;42.678;26.324;2024-03-22T00:50:30;98820.72;;;5.68;74.31
21236;BME280;10775;42.678;26.324;2024-03-22T00:52:55;98821.53;;;5.59;76.70
21236;BME280;10775;42.678;26.324;2024-03-22T00:55:22;98824.13;;;5.48;74.40
21236;BME280;10775;42.678;26.324;2024-03-22T00:57:48;98837.91;;;5.38;75.00
21236;BME280;10775;42.678;26.324;2024-03-22T01:00:14;98822.34;;;5.27;74.81
21236;BME280;10775;42.678;26.324;2024-03-22T01:02:40;98824.88;;;5.21;74.86
21236;BME280;10775;42.678;26.324;2024-03-22T01:05:06;98825.75;;;5.20;75.10
21236;BME280;10775;42.678;26.324;2024-03-22T01:07:31;98832.69;;;5.29;77.20
21236;BME280;10775;42.678;26.324;2024-03-22T01:09:57;98828.44;;;5.43;79.81
21236;BME280;10775;42.678;26.324;2024-03-22T01:12:22;98828.38;;;5.31;78.01
21236;BME280;10775;42.678;26.324;2024-03-22T01:14:48;98823.16;;;5.23;77.82
21236;BME280;10775;42.678;26.324;2024-03-22T01:17:13;98830.13;;;5.30;76.35
21236;BME280;10775;42.678;26.324;2024-03-22T01:19:39;98830.94;;;5.21;75.62
21236;BME280;10775;42.678;26.324;2024-03-22T01:22:04;98823.13;;;5.09;75.19
21236;BME280;10775;42.678;26.324;2024-03-22T01:24:30;98825.72;;;5.15;75.83
21236;BME280;10775;42.678;26.324;2024-03-22T01:26:55;98830.94;;;5.21;78.55
21236;BME280;10775;42.678;26.324;2024-03-22T01:29:20;98833.59;;;5.35;77.28
21236;BME280;10775;42.678;26.324;2024-03-22T01:31:47;98837.88;;;5.26;76.06
21236;BME280;10775;42.678;26.324;2024-03-22T01:34:13;98826.56;;;5.05;75.32
21236;BME280;10775;42.678;26.324;2024-03-22T01:36:39;98826.59;;;5.14;77.21
21236;BME280;10775;42.678;26.324;2024-03-22T01:39:04;98824.88;;;5.21;76.89
21236;BME280;10775;42.678;26.324;2024-03-22T01:41:30;98839.59;;;5.22;78.14
21236;BME280;10775;42.678;26.324;2024-03-22T01:43:57;98828.31;;;5.09;75.66
21236;BME280;10775;42.678;26.324;2024-03-22T01:46:23;98826.59;;;5.19;79.70
21236;BME280;10775;42.678;26.324;2024-03-22T01:48:48;98839.59;;;5.23;79.83
21236;BME280;10775;42.678;26.324;2024-03-22T01:51:14;98836.97;;;5.19;81.37
21236;BME280;10775;42.678;26.324;2024-03-22T01:53:40;98834.31;;;5.02;74.60
21236;BME280;10775;42.678;26.324;2024-03-22T01:56:06;98829.91;;;4.84;73.91
21236;BME280;10775;42.678;26.324;2024-03-22T01:58:33;98827.28;;;4.79;73.77
21236;BME280;10775;42.678;26.324;2024-03-22T02:00:58;98847.19;;;4.87;73.95
21236;BME280;10775;42.678;26.324;2024-03-22T02:03:24;98841.13;;;4.88;78.30
21236;BME280;10775;42.678;26.324;2024-03-22T02:05:49;98847.34;;;5.20;90.79
21236;BME280;10775;42.678;26.324;2024-03-22T02:08:15;98845.69;;;5.38;84.40
21236;BME280;10775;42.678;26.324;2024-03-22T02:10:40;98843.97;;;5.32;87.58
21236;BME280;10775;42.678;26.324;2024-03-22T02:13:05;98837.94;;;5.45;93.36
21236;BME280;10775;42.678;26.324;2024-03-22T02:15:31;98837.06;;;5.47;91.70
21236;BME280;10775;42.678;26.324;2024-03-22T02:17:57;98836.22;;;5.43;86.21
21236;BME280;10775;42.678;26.324;2024-03-22T02:20:22;98827.59;;;5.47;96.53
21236;BME280;10775;42.678;26.324;2024-03-22T02:22:47;98843.94;;;5.28;83.15
21236;BME280;10775;42.678;26.324;2024-03-22T02:25:13;98843.97;;;5.40;87.23
21236;BME280;10775;42.678;26.324;2024-03-22T02:27:38;98856.94;;;5.37;83.51
21236;BME280;10775;42.678;26.324;2024-03-22T02:30:04;98860.28;;;5.10;77.73
21236;BME280;10775;42.678;26.324;2024-03-22T02:32:30;98848.19;;;5.13;91.38
21236;BME280;10775;42.678;26.324;2024-03-22T02:34:56;98852.63;;;5.43;98.83
21236;BME280;10775;42.678;26.324;2024-03-22T02:37:21;98853.47;;;5.44;88.19
21236;BME280;10775;42.678;26.324;2024-03-22T02:39:46;98851.78;;;5.49;91.06
21236;BME280;10775;42.678;26.324;2024-03-22T02:42:12;98848.28;;;5.35;85.70
21236;BME280;10775;42.678;26.324;2024-03-22T02:44:37;98851.75;;;5.35;85.74
21236;BME280;10775;42.678;26.324;2024-03-22T02:47:10;98857.81;;;5.45;91.65
21236;BME280;10775;42.678;26.324;2024-03-22T02:49:38;98862.13;;;5.46;89.53
21236;BME280;10775;42.678;26.324;2024-03-22T02:52:04;98875.09;;;5.40;90.79
21236;BME280;10775;42.678;26.324;2024-03-22T02:54:30;98879.34;;;5.19;82.10
21236;BME280;10775;42.678;26.324;2024-03-22T02:56:55;98880.88;;;4.90;76.81
21236;BME280;10775;42.678;26.324;2024-03-22T02:59:21;98879.09;;;4.76;77.91
21236;BME280;10775;42.678;26.324;2024-03-22T03:01:46;98876.47;;;4.72;77.47
21236;BME280;10775;42.678;26.324;2024-03-22T03:04:11;98879.88;;;4.68;81.55
21236;BME280;10775;42.678;26.324;2024-03-22T03:06:39;98869.56;;;4.75;79.47
21236;BME280;10775;42.678;26.324;2024-03-22T03:09:04;98877.53;;;5.05;90.01
21236;BME280;10775;42.678;26.324;2024-03-22T03:11:33;98887.03;;;5.09;82.21
21236;BME280;10775;42.678;26.324;2024-03-22T03:13:58;98875.75;;;5.00;83.61
21236;BME280;10775;42.678;26.324;2024-03-22T03:16:30;98889.63;;;5.04;87.46
21236;BME280;10775;42.678;26.324;2024-03-22T03:18:55;98887.78;;;4.88;80.43
21236;BME280;10775;42.678;26.324;2024-03-22T03:21:21;98892.13;;;4.90;85.82
21236;BME280;10775;42.678;26.324;2024-03-22T03:23:46;98893.84;;;4.90;85.02
21236;BME280;10775;42.678;26.324;2024-03-22T03:26:12;98890.47;;;5.06;96.97
21236;BME280;10775;42.678;26.324;2024-03-22T03:28:38;98891.38;;;5.11;91.82
21236;BME280;10775;42.678;26.324;2024-03-22T03:31:03;98892.22;;;5.04;88.62
21236;BME280;10775;42.678;26.324;2024-03-22T03:33:29;98900.66;;;4.74;84.65
21236;BME280;10775;42.678;26.324;2024-03-22T03:35:55;98910.09;;;4.70;91.65
21236;BME280;10775;42.678;26.324;2024-03-22T03:38:20;98903.28;;;4.82;92.73
21236;BME280;10775;42.678;26.324;2024-03-22T03:40:46;98909.31;;;4.79;90.49
21236;BME280;10775;42.678;26.324;2024-03-22T03:43:12;98899.91;;;4.93;98.43
21236;BME280;10775;42.678;26.324;2024-03-22T03:45:37;98912.97;;;5.13;100.00
21236;BME280;10775;42.678;26.324;2024-03-22T03:48:03;98911.34;;;5.28;100.00
21236;BME280;10775;42.678;26.324;2024-03-22T03:50:29;98912.25;;;5.39;100.00
21236;BME280;10775;42.678;26.324;2024-03-22T03:52:54;98915.69;;;5.36;99.09
21236;BME280;10775;42.678;26.324;2024-03-22T03:55:19;98918.31;;;5.39;100.00
21236;BME280;10775;42.678;26.324;2024-03-22T03:57:45;98916.53;;;5.28;94.75
21236;BME280;10775;42.678;26.324;2024-03-22T04:00:11;98930.00;;;4.71;86.70
21236;BME280;10775;42.678;26.324;2024-03-22T04:02:36;98945.94;;;4.21;85.98
21236;BME280;10775;42.678;26.324;2024-03-22T04:05:01;98943.19;;;4.03;89.66
21236;BME280;10775;42.678;26.324;2024-03-22T04:07:27;98949.06;;;3.86;86.00
21236;BME280;10775;42.678;26.324;2024-03-22T04:09:54;98947.78;;;4.34;100.00
21236;BME280;10775;42.678;26.324;2024-03-22T04:12:19;98955.16;;;3.91;87.79
21236;BME280;10775;42.678;26.324;2024-03-22T04:14:45;98948.06;;;3.77;89.43
21236;BME280;10775;42.678;26.324;2024-03-22T04:17:10;98950.00;;;3.95;88.65
21236;BME280;10775;42.678;26.324;2024-03-22T04:19:36;98961.06;;;3.81;85.70
21236;BME280;10775;42.678;26.324;2024-03-22T04:22:02;98956.63;;;3.73;81.73
21236;BME280;10775;42.678;26.324;2024-03-22T04:24:27;98949.19;;;4.00;83.85
21236;BME280;10775;42.678;26.324;2024-03-22T04:26:53;98958.91;;;4.23;82.78
21236;BME280;10775;42.678;26.324;2024-03-22T04:29:18;98955.47;;;4.24;85.21
21236;BME280;10775;42.678;26.324;2024-03-22T04:31:43;98957.28;;;4.32;87.77
21236;BME280;10775;42.678;26.324;2024-03-22T04:34:09;98966.00;;;4.41;86.72
21236;BME280;10775;42.678;26.324;2024-03-22T04:36:35;98972.00;;;4.40;82.62
21236;BME280;10775;42.678;26.324;2024-03-22T04:39:01;98973.44;;;4.11;82.05
21236;BME280;10775;42.678;26.324;2024-03-22T04:41:26;98967.34;;;4.06;91.62
21236;BME280;10775;42.678;26.324;2024-03-22T04:43:52;98962.44;;;4.31;88.73
21236;BME280;10775;42.678;26.324;2024-03-22T04:46:17;98958.91;;;4.24;89.37
21236;BME280;10775;42.678;26.324;2024-03-22T04:48:43;98952.25;;;4.48;93.73
21236;BME280;10775;42.678;26.324;2024-03-22T04:51:08;98955.38;;;4.16;80.96
21236;BME280;10775;42.678;26.324;2024-03-22T04:53:33;98954.72;;;4.35;89.70
21236;BME280;10775;42.678;26.324;2024-03-22T04:55:59;98963.31;;;4.31;81.35
21236;BME280;10775;42.678;26.324;2024-03-22T04:58:24;98965.88;;;4.28;82.74
21236;BME280;10775;42.678;26.324;2024-03-22T05:00:56;98963.34;;;4.33;84.85
21236;BME280;10775;42.678;26.324;2024-03-22T05:03:22;98969.56;;;4.55;85.30
21236;BME280;10775;42.678;26.324;2024-03-22T05:05:49;98953.25;;;4.67;93.69
21236;BME280;10775;42.678;26.324;2024-03-22T05:08:15;98956.84;;;4.86;88.03
21236;BME280;10775;42.678;26.324;2024-03-22T05:10:40;98955.22;;;4.94;92.09
21236;BME280;10775;42.678;26.324;2024-03-22T05:13:07;98947.50;;;5.08;93.23
21236;BME280;10775;42.678;26.324;2024-03-22T05:15:32;98947.44;;;4.97;82.20
21236;BME280;10775;42.678;26.324;2024-03-22T05:17:59;98946.38;;;4.70;81.84
21236;BME280;10775;42.678;26.324;2024-03-22T05:20:25;98947.91;;;4.47;77.40
21236;BME280;10775;42.678;26.324;2024-03-22T05:22:51;98947.88;;;4.44;76.68
21236;BME280;10775;42.678;26.324;2024-03-22T05:25:16;98952.19;;;4.45;75.90
21236;BME280;10775;42.678;26.324;2024-03-22T05:27:42;98947.03;;;4.45;75.13
21236;BME280;10775;42.678;26.324;2024-03-22T05:30:09;98932.38;;;4.47;75.16
21236;BME280;10775;42.678;26.324;2024-03-22T05:32:35;98942.75;;;4.50;75.06
21236;BME280;10775;42.678;26.324;2024-03-22T05:35:00;98935.00;;;4.51;74.37
21236;BME280;10775;42.678;26.324;2024-03-22T05:37:26;98945.44;;;4.62;73.42
21236;BME280;10775;42.678;26.324;2024-03-22T05:39:52;98948.13;;;4.71;73.53
21236;BME280;10775;42.678;26.324;2024-03-22T05:42:17;98947.31;;;4.80;73.18
21236;BME280;10775;42.678;26.324;2024-03-22T05:44:44;98949.13;;;4.90;72.51
21236;BME280;10775;42.678;26.324;2024-03-22T05:47:09;98956.97;;;4.99;70.20
21236;BME280;10775;42.678;26.324;2024-03-22T05:49:35;98951.88;;;5.16;71.66
21236;BME280;10775;42.678;26.324;2024-03-22T05:52:00;98953.69;;;5.27;67.77
21236;BME280;10775;42.678;26.324;2024-03-22T05:54:26;98954.63;;;5.39;67.29
21236;BME280;10775;42.678;26.324;2024-03-22T05:56:51;98955.50;;;5.43;65.68
21236;BME280;10775;42.678;26.324;2024-03-22T05:59:17;98965.91;;;5.54;68.36
21236;BME280;10775;42.678;26.324;2024-03-22T06:01:42;98972.00;;;5.62;69.95
21236;BME280;10775;42.678;26.324;2024-03-22T06:04:08;98980.69;;;5.72;66.32
21236;BME280;10775;42.678;26.324;2024-03-22T06:06:34;98980.75;;;5.84;76.85
21236;BME280;10775;42.678;26.324;2024-03-22T06:09:00;98983.41;;;5.93;79.24
21236;BME280;10775;42.678;26.324;2024-03-22T06:11:32;98982.44;;;5.74;78.08
21236;BME280;10775;42.678;26.324;2024-03-22T06:13:58;98985.91;;;5.82;81.16
21236;BME280;10775;42.678;26.324;2024-03-22T06:16:23;98993.75;;;5.92;80.12
21236;BME280;10775;42.678;26.324;2024-03-22T06:18:48;98991.22;;;5.99;81.69
21236;BME280;10775;42.678;26.324;2024-03-22T06:21:14;98992.94;;;5.97;81.25
21236;BME280;10775;42.678;26.324;2024-03-22T06:23:40;98999.88;;;6.04;87.61
21236;BME280;10775;42.678;26.324;2024-03-22T06:26:07;98998.22;;;6.25;88.79
21236;BME280;10775;42.678;26.324;2024-03-22T06:28:32;99005.16;;;6.34;82.78
21236;BME280;10775;42.678;26.324;2024-03-22T06:30:57;98997.41;;;6.44;83.43
21236;BME280;10775;42.678;26.324;2024-03-22T06:33:23;99005.19;;;6.47;78.14
21236;BME280;10775;42.678;26.324;2024-03-22T06:35:48;99000.00;;;6.50;80.37
21236;BME280;10775;42.678;26.324;2024-03-22T06:38:14;99001.75;;;6.71;86.07
21236;BME280;10775;42.678;26.324;2024-03-22T06:40:40;99003.47;;;6.66;77.67
21236;BME280;10775;42.678;26.324;2024-03-22T06:43:06;99004.34;;;6.91;82.65
21236;BME280;10775;42.678;26.324;2024-03-22T06:45:31;99012.16;;;7.08;83.44
21236;BME280;10775;42.678;26.324;2024-03-22T06:47:57;99019.06;;;7.17;81.75
21236;BME280;10775;42.678;26.324;2024-03-22T06:50:22;99008.69;;;7.22;84.38
21236;BME280;10775;42.678;26.324;2024-03-22T06:52:50;99004.31;;;7.21;79.22
21236;BME280;10775;42.678;26.324;2024-03-22T06:55:16;99009.53;;;7.17;81.70
21236;BME280;10775;42.678;26.324;2024-03-22T06:57:42;99015.59;;;7.07;79.73
21236;BME280;10775;42.678;26.324;2024-03-22T07:00:07;99011.25;;;7.31;86.16
21236;BME280;10775;42.678;26.324;2024-03-22T07:02:35;99008.63;;;7.45;78.25
21236;BME280;10775;42.678;26.324;2024-03-22T07:05:00;99008.94;;;8.73;84.85
21236;BME280;10775;42.678;26.324;2024-03-22T07:07:26;99002.16;;;11.36;69.56
21236;BME280;10775;42.678;26.324;2024-03-22T07:09:51;99013.13;;;12.03;68.14
21236;BME280;10775;42.678;26.324;2024-03-22T07:12:17;99002.41;;;13.26;63.32
21236;BME280;10775;42.678;26.324;2024-03-22T07:14:42;99002.66;;;13.51;58.79
21236;BME280;10775;42.678;26.324;2024-03-22T07:17:08;99000.13;;;14.10;57.49
21236;BME280;10775;42.678;26.324;2024-03-22T07:19:33;99005.44;;;14.09;55.71
21236;BME280;10775;42.678;26.324;2024-03-22T07:22:00;99004.13;;;14.52;55.45
21236;BME280;10775;42.678;26.324;2024-03-22T07:24:25;98999.06;;;14.75;51.92
21236;BME280;10775;42.678;26.324;2024-03-22T07:26:51;99001.47;;;14.55;54.35
21236;BME280;10775;42.678;26.324;2024-03-22T07:29:16;99004.00;;;14.86;54.47
21236;BME280;10775;42.678;26.324;2024-03-22T07:31:42;99006.34;;;14.38;48.04
21236;BME280;10775;42.678;26.324;2024-03-22T07:34:07;99011.66;;;12.71;49.82
21236;BME280;10775;42.678;26.324;2024-03-22T07:36:37;99007.06;;;13.51;55.23
21236;BME280;10775;42.678;26.324;2024-03-22T07:39:02;99003.31;;;14.22;51.53
21236;BME280;10775;42.678;26.324;2024-03-22T07:41:34;99003.78;;;13.42;48.99
21236;BME280;10775;42.678;26.324;2024-03-22T07:44:00;99000.91;;;14.72;47.54
21236;BME280;10775;42.678;26.324;2024-03-22T07:46:26;99001.09;;;15.20;53.80
21236;BME280;10775;42.678;26.324;2024-03-22T07:48:52;98999.50;;;15.92;50.82
21236;BME280;10775;42.678;26.324;2024-03-22T07:51:19;98996.25;;;16.08;43.16
21236;BME280;10775;42.678;26.324;2024-03-22T07:53:44;98993.09;;;15.49;45.63
21236;BME280;10775;42.678;26.324;2024-03-22T07:56:09;98997.50;;;16.22;45.24
21236;BME280;10775;42.678;26.324;2024-03-22T07:58:38;98985.53;;;16.59;46.85
21236;BME280;10775;42.678;26.324;2024-03-22T08:01:04;99001.13;;;16.65;46.75
21236;BME280;10775;42.678;26.324;2024-03-22T08:03:30;98996.44;;;16.04;44.24
21236;BME280;10775;42.678;26.324;2024-03-22T08:05:56;98992.13;;;16.25;44.03
21236;BME280;10775;42.678;26.324;2024-03-22T08:08:21;98992.09;;;15.53;45.29
21236;BME280;10775;42.678;26.324;2024-03-22T08:10:47;98991.25;;;16.24;47.07
21236;BME280;10775;42.678;26.324;2024-03-22T08:13:13;98990.00;;;16.80;45.22
21236;BME280;10775;42.678;26.324;2024-03-22T08:15:38;98982.03;;;17.02;40.28
21236;BME280;10775;42.678;26.324;2024-03-22T08:18:04;98987.28;;;17.04;42.00
21236;BME280;10775;42.678;26.324;2024-03-22T08:20:30;98988.47;;;16.29;44.24
21236;BME280;10775;42.678;26.324;2024-03-22T08:22:57;98985.31;;;16.65;nan
21236;BME280;10775;42.678;26.324;2024-03-22T08:25:23;98973.97;;;16.85;41.64
21236;BME280;10775;42.678;26.324;2024-03-22T08:27:49;98980.97;;;16.40;43.82
21236;BME280;10775;42.678;26.324;2024-03-22T08:30:15;98986.38;;;16.37;41.84
21236;BME280;10775;42.678;26.324;2024-03-22T08:32:40;98995.81;;;16.43;40.50
21236;BME280;10775;42.678;26.324;2024-03-22T08:35:06;98986.66;;;16.75;42.31
21236;BME280;10775;42.678;26.324;2024-03-22T08:37:33;98988.84;;;16.42;35.73
21236;BME280;10775;42.678;26.324;2024-03-22T08:39:59;98989.25;;;16.07;34.76
21236;BME280;10775;42.678;26.324;2024-03-22T08:42:24;98982.28;;;16.74;37.66
21236;BME280;10775;42.678;26.324;2024-03-22T08:44:49;98989.84;;;17.05;33.16
21236;BME280;10775;42.678;26.324;2024-03-22T08:47:15;98984.63;;;16.60;33.58
21236;BME280;10775;42.678;26.324;2024-03-22T08:49:40;98984.31;;;16.89;36.76
21236;BME280;10775;42.678;26.324;2024-03-22T08:52:08;98971.00;;;16.70;38.73
21236;BME280;10775;42.678;26.324;2024-03-22T08:54:34;98994.41;;;15.10;33.98
21236;BME280;10775;42.678;26.324;2024-03-22T08:56:59;98986.84;;;16.01;36.26
21236;BME280;10775;42.678;26.324;2024-03-22T08:59:25;98985.72;;;16.08;36.69
21236;BME280;10775;42.678;26.324;2024-03-22T09:01:51;98978.34;;;15.70;38.96
21236;BME280;10775;42.678;26.324;2024-03-22T09:04:17;98975.44;;;15.52;41.01
21236;BME280;10775;42.678;26.324;2024-03-22T09:06:42;98980.81;;;15.74;42.59
21236;BME280;10775;42.678;26.324;2024-03-22T09:09:08;98986.31;;;15.66;38.98
21236;BME280;10775;42.678;26.324;2024-03-22T09:11:34;98972.50;;;16.32;36.13
21236;BME280;10775;42.678;26.324;2024-03-22T09:13:59;98972.06;;;15.97;39.39
21236;BME280;10775;42.678;26.324;2024-03-22T09:16:25;98973.34;;;16.11;37.57
21236;BME280;10775;42.678;26.324;2024-03-22T09:18:50;98977.28;;;16.22;38.68
21236;BME280;10775;42.678;26.324;2024-03-22T09:21:16;98968.53;;;16.20;37.98
21236;BME280;10775;42.678;26.324;2024-03-22T09:23:42;98962.25;;;15.52;41.57
21236;BME280;10775;42.678;26.324;2024-03-22T09:26:07;98949.50;;;15.65;38.28
21236;BME280;10775;42.678;26.324;2024-03-22T09:28:32;98964.56;;;14.56;41.33
21236;BME280;10775;42.678;26.324;2024-03-22T09:30:58;98963.59;;;15.14;41.51
21236;BME280;10775;42.678;26.324;2024-03-22T09:33:28;98976.47;;;15.73;41.18
21236;BME280;10775;42.678;26.324;2024-03-22T09:35:53;98973.19;;;16.37;39.59
21236;BME280;10775;42.678;26.324;2024-03-22T09:38:19;98975.69;;;16.18;36.01
21236;BME280;10775;42.678;26.324;2024-03-22T09:40:46;98969.19;;;16.27;37.23
21236;BME280;10775;42.678;26.324;2024-03-22T09:43:12;98966.78;;;15.97;35.07
21236;BME280;10775;42.678;26.324;2024-03-22T09:45:44;98970.69;;;16.34;36.54
21236;BME280;10775;42.678;26.324;2024-03-22T09:48:10;98969.78;;;15.88;34.45
21236;BME280;10775;42.678;26.324;2024-03-22T09:50:36;98956.03;;;16.25;36.92
21236;BME280;10775;42.678;26.324;2024-03-22T09:53:03;98959.88;;;16.40;32.41
21236;BME280;10775;42.678;26.324;2024-03-22T09:55:30;98946.13;;;16.32;32.00
21236;BME280;10775;42.678;26.324;2024-03-22T09:57:56;98955.19;;;16.25;34.57
21236;BME280;10775;42.678;26.324;2024-03-22T10:00:22;98959.56;;;16.26;34.40
21236;BME280;10775;42.678;26.324;2024-03-22T10:02:50;98950.16;;;16.41;36.11
21236;BME280;10775;42.678;26.324;2024-03-22T10:05:15;98949.91;;;16.25;35.82
21236;BME280;10775;42.678;26.324;2024-03-22T10:07:43;98955.25;;;16.00;37.08
21236;BME280;10775;42.678;26.324;2024-03-22T10:10:09;98951.25;;;15.90;39.29
21236;BME280;10775;42.678;26.324;2024-03-22T10:12:35;98939.81;;;15.91;37.88
21236;BME280;10775;42.678;26.324;2024-03-22T10:15:00;98927.13;;;15.77;36.57
21236;BME280;10775;42.678;26.324;2024-03-22T10:17:27;98934.56;;;16.13;37.89
21236;BME280;10775;42.678;26.324;2024-03-22T10:19:53;98924.84;;;15.91;35.42
21236;BME280;10775;42.678;26.324;2024-03-22T10:22:19;98922.47;;;16.07;35.64
21236;BME280;10775;42.678;26.324;2024-03-22T10:24:45;98922.13;;;16.38;37.15
21236;BME280;10775;42.678;26.324;2024-03-22T10:27:10;98926.59;;;16.14;35.92
21236;BME280;10775;42.678;26.324;2024-03-22T10:29:37;98919.72;;;15.86;36.28
21236;BME280;10775;42.678;26.324;2024-03-22T10:32:02;98926.25;;;16.00;33.58
21236;BME280;10775;42.678;26.324;2024-03-22T10:34:28;98925.09;;;16.07;39.16
21236;BME280;10775;42.678;26.324;2024-03-22T10:36:59;98906.19;;;16.19;37.89
21236;BME280;10775;42.678;26.324;2024-03-22T10:39:26;98905.84;;;16.05;35.47
21236;BME280;10775;42.678;26.324;2024-03-22T10:41:52;98903.06;;;15.86;32.88
21236;BME280;10775;42.678;26.324;2024-03-22T10:44:17;98892.56;;;15.36;29.95
21236;BME280;10775;42.678;26.324;2024-03-22T10:46:47;98886.41;;;14.87;30.30
21236;BME280;10775;42.678;26.324;2024-03-22T10:49:18;98896.88;;;15.38;31.30
21236;BME280;10775;42.678;26.324;2024-03-22T10:51:49;98891.31;;;15.71;31.90
21236;BME280;10775;42.678;26.324;2024-03-22T10:54:19;98892.94;;;15.75;28.34
21236;BME280;10775;42.678;26.324;2024-03-22T10:56:46;98881.44;;;14.23;28.40
21236;BME280;10775;42.678;26.324;2024-03-22T10:59:22;98889.94;;;14.03;29.49
21236;BME280;10775;42.678;26.324;2024-03-22T11:01:48;98877.84;;;14.25;30.55
21236;BME280;10775;42.678;26.324;2024-03-22T11:04:19;98870.41;;;14.66;30.55
21236;BME280;10775;42.678;26.324;2024-03-22T11:06:49;98872.13;;;14.94;29.63
21236;BME280;10775;42.678;26.324;2024-03-22T11:09:21;98873.53;;;14.51;30.10
21236;BME280;10775;42.678;26.324;2024-03-22T11:11:47;98871.97;;;14.72;29.40
21236;BME280;10775;42.678;26.324;2024-03-22T11:14:12;98867.63;;;14.71;28.71
21236;BME280;10775;42.678;26.324;2024-03-22T11:16:38;98872.94;;;15.44;29.96
21236;BME280;10775;42.678;26.324;2024-03-22T11:19:04;98864.41;;;15.61;30.58
21236;BME280;10775;42.678;26.324;2024-03-22T11:21:32;98864.03;;;15.96;35.02
21236;BME280;10775;42.678;26.324;2024-03-22T11:24:00;98865.19;;;15.89;31.75
21236;BME280;10775;42.678;26.324;2024-03-22T11:26:26;98862.56;;;15.63;29.87
21236;BME280;10775;42.678;26.324;2024-03-22T11:28:51;98860.44;;;15.75;29.47
21236;BME280;10775;42.678;26.324;2024-03-22T11:31:17;98859.47;;;15.29;27.79
21236;BME280;10775;42.678;26.324;2024-03-22T11:33:44;98854.16;;;15.54;28.18
21236;BME280;10775;42.678;26.324;2024-03-22T11:36:09;98856.25;;;14.95;27.59
21236;BME280;10775;42.678;26.324;2024-03-22T11:38:35;98863.84;;;14.51;28.49
21236;BME280;10775;42.678;26.324;2024-03-22T11:41:01;98853.81;;;14.64;28.24
21236;BME280;10775;42.678;26.324;2024-03-22T11:45:04;98845.66;;;14.72;28.87
21236;BME280;10775;42.678;26.324;2024-03-22T11:47:30;98843.44;;;15.11;27.86
21236;BME280;10775;42.678;26.324;2024-03-22T11:49:55;98828.97;;;14.98;28.19
21236;BME280;10775;42.678;26.324;2024-03-22T11:52:25;98830.59;;;15.26;28.49
21236;BME280;10775;42.678;26.324;2024-03-22T11:54:51;98835.81;;;15.51;28.01
21236;BME280;10775;42.678;26.324;2024-03-22T11:57:23;98841.13;;;15.26;27.69
21236;BME280;10775;42.678;26.324;2024-03-22T11:59:50;98837.84;;;14.70;27.87
21236;BME280;10775;42.678;26.324;2024-03-22T12:02:16;98840.06;;;14.56;27.88
21236;BME280;10775;42.678;26.324;2024-03-22T12:04:42;98833.47;;;14.43;27.78
21236;BME280;10775;42.678;26.324;2024-03-22T12:07:18;98830.28;;;14.60;30.09
21236;BME280;10775;42.678;26.324;2024-03-22T12:09:44;98838.03;;;15.14;28.34
21236;BME280;10775;42.678;26.324;2024-03-22T12:12:11;98836.28;;;15.15;27.27
21236;BME280;10775;42.678;26.324;2024-03-22T12:14:37;98823.69;;;14.46;27.13
21236;BME280;10775;42.678;26.324;2024-03-22T12:17:04;98828.25;;;14.14;27.66
21236;BME280;10775;42.678;26.324;2024-03-22T12:19:30;98835.09;;;14.73;27.36
21236;BME280;10775;42.678;26.324;2024-03-22T12:21:55;98813.53;;;15.36;29.80
21236;BME280;10775;42.678;26.324;2024-03-22T12:24:21;98815.09;;;15.89;27.21
21236;BME280;10775;42.678;26.324;2024-03-22T12:26:47;98816.53;;;14.78;27.31
21236;BME280;10775;42.678;26.324;2024-03-22T12:29:14;98806.25;;;14.70;28.08
21236;BME280;10775;42.678;26.324;2024-03-22T12:31:40;98816.94;;;14.91;27.63
21236;BME280;10775;42.678;26.324;2024-03-22T12:34:06;98803.44;;;15.00;29.04
21236;BME280;10775;42.678;26.324;2024-03-22T12:36:32;98807.06;;;15.21;28.68
21236;BME280;10775;42.678;26.324;2024-03-22T12:38:57;98804.75;;;14.63;28.19
21236;BME280;10775;42.678;26.324;2024-03-22T12:41:23;98800.94;;;14.72;28.40
21236;BME280;10775;42.678;26.324;2024-03-22T12:43:48;98795.56;;;15.47;28.38
21236;BME280;10775;42.678;26.324;2024-03-22T12:46:14;98793.16;;;16.30;30.88
21236;BME280;10775;42.678;26.324;2024-03-22T12:48:39;98791.72;;;16.01;27.78
21236;BME280;10775;42.678;26.324;2024-03-22T12:51:06;98793.84;;;15.46;27.91